Pennsylvania — WAPZ — position and weather

sailwx.info

Track history (hours):
 
Tides and Currents Weather Stations Pressure Air Temp Water Temp Dewpoint Dewpoint Depression Visibility Wind Speed Wind Dir Waves Ship Positions

Pennsylvania

Owner: Crowley Petroleum Services, Jacksonville, FL. More information available from US FCC via Universal Licensing System and Coast Guard Vessel Documentation Center.

Last reported at 2014-Dec-20 04:32 UTC. Time now 2014-Dec-21 04:06 UTC.
Position N 25°34' W 080°01'.

Length 183 m; draft 8.8 m.

Type: Tanker. MMSI: 338617000.

Date/timePositionNaut miles runAvg speedWind from/ knotsBaromVisibWave heightAir tempDewpointWater temp
2014-Dec-20 04:32N 25°34' W 080°01'1212.5
2014-Dec-20 03:33N 25°46' W 080°00'1212.4
2014-Dec-20 02:33N 25°58' W 079°59'1212.3
2014-Dec-20 01:33N 26°11' W 079°59'1212.3
2014-Dec-20 00:33N 26°23' W 079°58'1212.0
2014-Dec-19 23:33N 26°35' W 079°56'1211.9
2014-Dec-19 22:34N 26°47' W 079°56'1212.0
2014-Dec-19 21:33N 26°59' W 079°56'46913.6
2014-Dec-18 11:06N 34°12' W 076°28'2415.5
2014-Dec-18 09:31N 34°29' W 076°06'  
2014-Dec-11 08:33N 26°40' W 079°44'1313.3
2014-Dec-11 07:33N 26°27' W 079°46'1313.5
2014-Dec-11 06:33N 26°13' W 079°48'1312.8
2014-Dec-11 05:33N 26°01' W 079°50'1312.6
2014-Dec-11 04:33N 25°48' W 079°51'  
Track history (hours):
 
Tides and Currents Weather Stations Pressure Air Temp Water Temp Dewpoint Dewpoint Depression Visibility Wind Speed Wind Dir Waves Ship Positions

Pennsylvania

Owner: Crowley Petroleum Services, Jacksonville, FL. More information available from US FCC via Universal Licensing System and Coast Guard Vessel Documentation Center.

Last reported at 2014-Dec-20 04:32 UTC. Time now 2014-Dec-21 04:06 UTC.
Position N 25°34' W 080°01'.

Length 183 m; draft 8.8 m.

Type: Tanker. MMSI: 338617000.

Date/timePositionNaut miles runAvg speedWind from/ knotsBaromVisibWave heightAir tempDewpointWater temp
2014-Dec-20 04:32N 25°34' W 080°01'1212.5
2014-Dec-20 03:33N 25°46' W 080°00'1212.4
2014-Dec-20 02:33N 25°58' W 079°59'1212.3
2014-Dec-20 01:33N 26°11' W 079°59'1212.3
2014-Dec-20 00:33N 26°23' W 079°58'1212.0
2014-Dec-19 23:33N 26°35' W 079°56'1211.9
2014-Dec-19 22:34N 26°47' W 079°56'1212.0
2014-Dec-19 21:33N 26°59' W 079°56'46913.6
2014-Dec-18 11:06N 34°12' W 076°28'2415.5
2014-Dec-18 09:31N 34°29' W 076°06'  
2014-Dec-11 08:33N 26°40' W 079°44'1313.3
2014-Dec-11 07:33N 26°27' W 079°46'1313.5
2014-Dec-11 06:33N 26°13' W 079°48'1312.8
2014-Dec-11 05:33N 26°01' W 079°50'1312.6
2014-Dec-11 04:33N 25°48' W 079°51'  

Dump ship's entire track history